sensor_id;sensor_type;location;lat;lon;timestamp;P1;durP1;ratioP1;P2;durP2;ratioP2
41739;SDS011;27422;52.444;13.300;2022-12-17T00:00:37;47.92;;;19.23;;
41739;SDS011;27422;52.444;13.300;2022-12-17T00:03:21;49.45;;;19.27;;
41739;SDS011;27422;52.444;13.300;2022-12-17T00:06:05;51.55;;;19.58;;
41739;SDS011;27422;52.444;13.300;2022-12-17T00:08:50;53.53;;;21.40;;
41739;SDS011;27422;52.444;13.300;2022-12-17T00:11:34;51.75;;;20.80;;
41739;SDS011;27422;52.444;13.300;2022-12-17T00:14:17;50.58;;;20.45;;
41739;SDS011;27422;52.444;13.300;2022-12-17T00:17:01;47.45;;;20.58;;
41739;SDS011;27422;52.444;13.300;2022-12-17T00:19:45;51.65;;;20.50;;
41739;SDS011;27422;52.444;13.300;2022-12-17T00:22:28;51.75;;;19.63;;
41739;SDS011;27422;52.444;13.300;2022-12-17T00:25:12;46.88;;;19.75;;
41739;SDS011;27422;52.444;13.300;2022-12-17T00:27:56;49.95;;;19.58;;
41739;SDS011;27422;52.444;13.300;2022-12-17T00:30:40;46.83;;;19.73;;
41739;SDS011;27422;52.444;13.300;2022-12-17T00:33:24;52.80;;;20.65;;
41739;SDS011;27422;52.444;13.300;2022-12-17T00:36:08;49.03;;;20.83;;
41739;SDS011;27422;52.444;13.300;2022-12-17T00:38:52;46.67;;;19.67;;
41739;SDS011;27422;52.444;13.300;2022-12-17T00:41:36;46.75;;;19.42;;
41739;SDS011;27422;52.444;13.300;2022-12-17T00:44:20;44.45;;;19.25;;
41739;SDS011;27422;52.444;13.300;2022-12-17T00:47:04;44.30;;;20.45;;
41739;SDS011;27422;52.444;13.300;2022-12-17T00:49:48;50.10;;;20.55;;
41739;SDS011;27422;52.444;13.300;2022-12-17T00:52:32;44.15;;;18.20;;
41739;SDS011;27422;52.444;13.300;2022-12-17T00:55:16;47.33;;;19.50;;
41739;SDS011;27422;52.444;13.300;2022-12-17T00:58:00;49.30;;;20.13;;
41739;SDS011;27422;52.444;13.300;2022-12-17T01:00:43;46.08;;;20.02;;
41739;SDS011;27422;52.444;13.300;2022-12-17T01:03:27;48.55;;;20.48;;
41739;SDS011;27422;52.444;13.300;2022-12-17T01:06:12;42.95;;;19.88;;
41739;SDS011;27422;52.444;13.300;2022-12-17T01:08:56;46.00;;;19.88;;
41739;SDS011;27422;52.444;13.300;2022-12-17T01:11:40;52.08;;;18.90;;
41739;SDS011;27422;52.444;13.300;2022-12-17T01:14:24;42.30;;;20.02;;
41739;SDS011;27422;52.444;13.300;2022-12-17T01:17:08;44.05;;;17.85;;
41739;SDS011;27422;52.444;13.300;2022-12-17T01:20:06;44.80;;;17.02;;
41739;SDS011;27422;52.444;13.300;2022-12-17T01:22:50;40.00;;;16.80;;
41739;SDS011;27422;52.444;13.300;2022-12-17T01:25:34;38.92;;;16.00;;
41739;SDS011;27422;52.444;13.300;2022-12-17T01:28:21;39.80;;;16.80;;
41739;SDS011;27422;52.444;13.300;2022-12-17T01:31:06;44.50;;;16.45;;
41739;SDS011;27422;52.444;13.300;2022-12-17T01:33:51;47.63;;;17.45;;
41739;SDS011;27422;52.444;13.300;2022-12-17T01:36:35;48.00;;;18.05;;
41739;SDS011;27422;52.444;13.300;2022-12-17T01:39:18;41.72;;;16.00;;
41739;SDS011;27422;52.444;13.300;2022-12-17T01:42:02;40.78;;;16.08;;
41739;SDS011;27422;52.444;13.300;2022-12-17T01:44:53;49.97;;;16.85;;
41739;SDS011;27422;52.444;13.300;2022-12-17T01:47:39;41.10;;;16.10;;
41739;SDS011;27422;52.444;13.300;2022-12-17T01:50:38;38.35;;;15.48;;
41739;SDS011;27422;52.444;13.300;2022-12-17T01:53:26;45.30;;;16.10;;
41739;SDS011;27422;52.444;13.300;2022-12-17T01:56:12;47.47;;;16.23;;
41739;SDS011;27422;52.444;13.300;2022-12-17T01:58:56;39.55;;;15.18;;
41739;SDS011;27422;52.444;13.300;2022-12-17T02:01:40;35.97;;;15.13;;
41739;SDS011;27422;52.444;13.300;2022-12-17T02:04:24;43.28;;;15.93;;
41739;SDS011;27422;52.444;13.300;2022-12-17T02:10:18;43.50;;;15.30;;
41739;SDS011;27422;52.444;13.300;2022-12-17T02:13:18;43.58;;;16.20;;
41739;SDS011;27422;52.444;13.300;2022-12-17T02:16:08;47.33;;;17.17;;
41739;SDS011;27422;52.444;13.300;2022-12-17T02:18:59;52.80;;;16.88;;
41739;SDS011;27422;52.444;13.300;2022-12-17T02:22:04;49.40;;;18.55;;
41739;SDS011;27422;52.444;13.300;2022-12-17T02:25:07;53.45;;;16.63;;
41739;SDS011;27422;52.444;13.300;2022-12-17T02:27:58;44.60;;;14.18;;
41739;SDS011;27422;52.444;13.300;2022-12-17T02:30:42;44.28;;;14.27;;
41739;SDS011;27422;52.444;13.300;2022-12-17T02:33:26;39.15;;;14.82;;
41739;SDS011;27422;52.444;13.300;2022-12-17T02:36:10;45.33;;;14.57;;
41739;SDS011;27422;52.444;13.300;2022-12-17T02:38:54;46.45;;;15.27;;
41739;SDS011;27422;52.444;13.300;2022-12-17T02:41:45;38.88;;;14.60;;
41739;SDS011;27422;52.444;13.300;2022-12-17T02:44:30;35.42;;;13.18;;
41739;SDS011;27422;52.444;13.300;2022-12-17T02:47:15;39.50;;;13.50;;
41739;SDS011;27422;52.444;13.300;2022-12-17T02:50:01;37.13;;;13.82;;
41739;SDS011;27422;52.444;13.300;2022-12-17T02:52:46;33.90;;;12.80;;
41739;SDS011;27422;52.444;13.300;2022-12-17T02:55:31;32.38;;;12.23;;
41739;SDS011;27422;52.444;13.300;2022-12-17T02:58:16;29.25;;;11.60;;
41739;SDS011;27422;52.444;13.300;2022-12-17T03:01:00;32.00;;;11.93;;
41739;SDS011;27422;52.444;13.300;2022-12-17T03:03:48;27.58;;;10.30;;
41739;SDS011;27422;52.444;13.300;2022-12-17T03:06:32;29.55;;;11.98;;
41739;SDS011;27422;52.444;13.300;2022-12-17T03:09:16;26.70;;;10.43;;
41739;SDS011;27422;52.444;13.300;2022-12-17T03:12:00;31.00;;;10.75;;
41739;SDS011;27422;52.444;13.300;2022-12-17T03:14:44;28.52;;;10.68;;
41739;SDS011;27422;52.444;13.300;2022-12-17T03:17:28;29.55;;;10.57;;
41739;SDS011;27422;52.444;13.300;2022-12-17T03:20:12;32.15;;;11.75;;
41739;SDS011;27422;52.444;13.300;2022-12-17T03:23:03;26.00;;;10.23;;
41739;SDS011;27422;52.444;13.300;2022-12-17T03:25:48;25.63;;;10.10;;
41739;SDS011;27422;52.444;13.300;2022-12-17T03:28:33;24.70;;;10.27;;
41739;SDS011;27422;52.444;13.300;2022-12-17T03:31:17;27.17;;;11.65;;
41739;SDS011;27422;52.444;13.300;2022-12-17T03:34:01;22.45;;;9.27;;
41739;SDS011;27422;52.444;13.300;2022-12-17T03:36:45;19.85;;;8.32;;
41739;SDS011;27422;52.444;13.300;2022-12-17T03:39:28;21.58;;;9.00;;
41739;SDS011;27422;52.444;13.300;2022-12-17T03:42:12;25.67;;;9.27;;
41739;SDS011;27422;52.444;13.300;2022-12-17T03:44:57;20.38;;;8.60;;
41739;SDS011;27422;52.444;13.300;2022-12-17T03:47:41;19.33;;;8.02;;
41739;SDS011;27422;52.444;13.300;2022-12-17T03:50:25;22.42;;;8.85;;
41739;SDS011;27422;52.444;13.300;2022-12-17T03:53:09;23.00;;;8.60;;
41739;SDS011;27422;52.444;13.300;2022-12-17T03:55:53;23.33;;;9.80;;
41739;SDS011;27422;52.444;13.300;2022-12-17T03:58:37;20.90;;;8.75;;
41739;SDS011;27422;52.444;13.300;2022-12-17T04:01:20;19.85;;;8.45;;
41739;SDS011;27422;52.444;13.300;2022-12-17T04:04:04;25.00;;;8.95;;
41739;SDS011;27422;52.444;13.300;2022-12-17T04:06:48;21.98;;;9.15;;
41739;SDS011;27422;52.444;13.300;2022-12-17T04:09:32;20.48;;;8.77;;
41739;SDS011;27422;52.444;13.300;2022-12-17T04:12:16;24.88;;;9.57;;
41739;SDS011;27422;52.444;13.300;2022-12-17T04:15:00;19.02;;;8.35;;
41739;SDS011;27422;52.444;13.300;2022-12-17T04:17:44;24.90;;;10.00;;
41739;SDS011;27422;52.444;13.300;2022-12-17T04:20:28;23.00;;;8.82;;
41739;SDS011;27422;52.444;13.300;2022-12-17T04:23:12;23.45;;;9.18;;
41739;SDS011;27422;52.444;13.300;2022-12-17T04:26:07;21.13;;;9.25;;
41739;SDS011;27422;52.444;13.300;2022-12-17T04:28:51;21.33;;;8.38;;
41739;SDS011;27422;52.444;13.300;2022-12-17T04:31:35;20.77;;;9.25;;
41739;SDS011;27422;52.444;13.300;2022-12-17T04:34:18;22.48;;;10.20;;
41739;SDS011;27422;52.444;13.300;2022-12-17T04:37:02;24.45;;;9.50;;
41739;SDS011;27422;52.444;13.300;2022-12-17T04:39:46;22.73;;;9.50;;
41739;SDS011;27422;52.444;13.300;2022-12-17T04:42:30;23.08;;;9.20;;
41739;SDS011;27422;52.444;13.300;2022-12-17T04:45:14;25.92;;;9.93;;
41739;SDS011;27422;52.444;13.300;2022-12-17T04:48:03;23.75;;;9.63;;
41739;SDS011;27422;52.444;13.300;2022-12-17T04:50:48;26.15;;;9.80;;
41739;SDS011;27422;52.444;13.300;2022-12-17T04:53:32;27.23;;;9.90;;
41739;SDS011;27422;52.444;13.300;2022-12-17T04:56:16;24.80;;;9.32;;
41739;SDS011;27422;52.444;13.300;2022-12-17T04:59:01;24.85;;;10.52;;
41739;SDS011;27422;52.444;13.300;2022-12-17T05:01:52;24.20;;;10.38;;
41739;SDS011;27422;52.444;13.300;2022-12-17T05:04:36;24.42;;;9.75;;
41739;SDS011;27422;52.444;13.300;2022-12-17T05:07:20;21.10;;;9.05;;
41739;SDS011;27422;52.444;13.300;2022-12-17T05:10:04;28.65;;;10.65;;
41739;SDS011;27422;52.444;13.300;2022-12-17T05:12:56;25.10;;;9.38;;
41739;SDS011;27422;52.444;13.300;2022-12-17T05:15:41;29.02;;;10.02;;
41739;SDS011;27422;52.444;13.300;2022-12-17T05:18:25;24.90;;;10.85;;
41739;SDS011;27422;52.444;13.300;2022-12-17T05:21:09;26.20;;;10.35;;
41739;SDS011;27422;52.444;13.300;2022-12-17T05:24:00;23.55;;;10.13;;
41739;SDS011;27422;52.444;13.300;2022-12-17T05:26:44;26.58;;;9.30;;
41739;SDS011;27422;52.444;13.300;2022-12-17T05:29:28;25.52;;;10.25;;
41739;SDS011;27422;52.444;13.300;2022-12-17T05:32:12;24.23;;;8.90;;
41739;SDS011;27422;52.444;13.300;2022-12-17T05:34:56;25.27;;;9.60;;
41739;SDS011;27422;52.444;13.300;2022-12-17T05:37:40;29.17;;;9.85;;
41739;SDS011;27422;52.444;13.300;2022-12-17T05:40:23;28.17;;;9.32;;
41739;SDS011;27422;52.444;13.300;2022-12-17T05:43:09;25.00;;;9.50;;
41739;SDS011;27422;52.444;13.300;2022-12-17T05:45:57;25.02;;;9.18;;
41739;SDS011;27422;52.444;13.300;2022-12-17T05:48:41;20.23;;;6.95;;
41739;SDS011;27422;52.444;13.300;2022-12-17T05:51:25;26.52;;;9.43;;
41739;SDS011;27422;52.444;13.300;2022-12-17T05:54:08;26.00;;;10.13;;
41739;SDS011;27422;52.444;13.300;2022-12-17T05:56:52;26.73;;;8.95;;
41739;SDS011;27422;52.444;13.300;2022-12-17T05:59:39;26.43;;;10.13;;
41739;SDS011;27422;52.444;13.300;2022-12-17T06:02:23;24.10;;;8.68;;
41739;SDS011;27422;52.444;13.300;2022-12-17T06:05:07;22.45;;;8.60;;
41739;SDS011;27422;52.444;13.300;2022-12-17T06:07:51;26.20;;;10.13;;
41739;SDS011;27422;52.444;13.300;2022-12-17T06:10:35;28.25;;;10.45;;
41739;SDS011;27422;52.444;13.300;2022-12-17T06:13:22;26.70;;;10.52;;
41739;SDS011;27422;52.444;13.300;2022-12-17T06:16:06;18.38;;;7.35;;
41739;SDS011;27422;52.444;13.300;2022-12-17T06:18:50;29.55;;;10.23;;
41739;SDS011;27422;52.444;13.300;2022-12-17T06:21:34;25.60;;;10.05;;
41739;SDS011;27422;52.444;13.300;2022-12-17T06:24:17;26.27;;;9.73;;
41739;SDS011;27422;52.444;13.300;2022-12-17T06:27:02;28.42;;;10.57;;
41739;SDS011;27422;52.444;13.300;2022-12-17T06:29:46;24.00;;;10.85;;
41739;SDS011;27422;52.444;13.300;2022-12-17T06:32:30;23.40;;;10.57;;
41739;SDS011;27422;52.444;13.300;2022-12-17T06:35:14;26.70;;;9.98;;
41739;SDS011;27422;52.444;13.300;2022-12-17T06:37:58;25.38;;;10.75;;
41739;SDS011;27422;52.444;13.300;2022-12-17T06:40:46;19.42;;;8.80;;
41739;SDS011;27422;52.444;13.300;2022-12-17T06:43:30;19.75;;;8.30;;
41739;SDS011;27422;52.444;13.300;2022-12-17T06:46:14;22.48;;;9.38;;
41739;SDS011;27422;52.444;13.300;2022-12-17T06:48:57;22.40;;;8.65;;
41739;SDS011;27422;52.444;13.300;2022-12-17T06:51:41;18.80;;;8.88;;
41739;SDS011;27422;52.444;13.300;2022-12-17T06:54:26;22.52;;;8.02;;
41739;SDS011;27422;52.444;13.300;2022-12-17T06:57:09;21.13;;;8.55;;
41739;SDS011;27422;52.444;13.300;2022-12-17T06:59:53;22.35;;;9.48;;
41739;SDS011;27422;52.444;13.300;2022-12-17T07:02:37;21.67;;;8.80;;
41739;SDS011;27422;52.444;13.300;2022-12-17T07:05:21;19.40;;;9.13;;
41739;SDS011;27422;52.444;13.300;2022-12-17T07:08:04;20.30;;;9.20;;
41739;SDS011;27422;52.444;13.300;2022-12-17T07:10:49;22.10;;;8.95;;
41739;SDS011;27422;52.444;13.300;2022-12-17T07:13:35;22.10;;;8.65;;
41739;SDS011;27422;52.444;13.300;2022-12-17T07:16:19;21.98;;;8.75;;
41739;SDS011;27422;52.444;13.300;2022-12-17T07:19:03;22.73;;;9.00;;
41739;SDS011;27422;52.444;13.300;2022-12-17T07:21:47;24.17;;;10.35;;
41739;SDS011;27422;52.444;13.300;2022-12-17T07:24:31;19.88;;;8.88;;
41739;SDS011;27422;52.444;13.300;2022-12-17T07:27:15;20.23;;;9.63;;
41739;SDS011;27422;52.444;13.300;2022-12-17T07:29:59;20.17;;;8.15;;
41739;SDS011;27422;52.444;13.300;2022-12-17T07:32:43;19.73;;;9.05;;
41739;SDS011;27422;52.444;13.300;2022-12-17T07:35:26;19.30;;;8.80;;
41739;SDS011;27422;52.444;13.300;2022-12-17T07:38:10;20.33;;;8.93;;
41739;SDS011;27422;52.444;13.300;2022-12-17T07:40:55;22.20;;;8.85;;
41739;SDS011;27422;52.444;13.300;2022-12-17T07:43:38;22.58;;;9.88;;
41739;SDS011;27422;52.444;13.300;2022-12-17T07:46:22;22.15;;;8.85;;
41739;SDS011;27422;52.444;13.300;2022-12-17T07:49:06;21.70;;;9.20;;
41739;SDS011;27422;52.444;13.300;2022-12-17T07:51:50;19.92;;;8.18;;
41739;SDS011;27422;52.444;13.300;2022-12-17T07:54:42;20.73;;;7.90;;
41739;SDS011;27422;52.444;13.300;2022-12-17T07:57:25;19.00;;;8.15;;
41739;SDS011;27422;52.444;13.300;2022-12-17T08:00:09;17.23;;;8.30;;
41739;SDS011;27422;52.444;13.300;2022-12-17T08:02:57;18.92;;;7.80;;
41739;SDS011;27422;52.444;13.300;2022-12-17T08:05:42;18.58;;;8.40;;
41739;SDS011;27422;52.444;13.300;2022-12-17T08:08:26;19.40;;;8.95;;
41739;SDS011;27422;52.444;13.300;2022-12-17T08:11:09;19.80;;;9.07;;
41739;SDS011;27422;52.444;13.300;2022-12-17T08:13:53;17.85;;;7.80;;
41739;SDS011;27422;52.444;13.300;2022-12-17T08:16:37;22.35;;;8.77;;
41739;SDS011;27422;52.444;13.300;2022-12-17T08:19:21;19.67;;;8.05;;
41739;SDS011;27422;52.444;13.300;2022-12-17T08:22:05;22.02;;;8.50;;
41739;SDS011;27422;52.444;13.300;2022-12-17T08:24:49;20.33;;;8.25;;
41739;SDS011;27422;52.444;13.300;2022-12-17T08:27:33;20.15;;;8.40;;
41739;SDS011;27422;52.444;13.300;2022-12-17T08:30:16;18.33;;;8.27;;
41739;SDS011;27422;52.444;13.300;2022-12-17T08:33:04;18.63;;;7.80;;
41739;SDS011;27422;52.444;13.300;2022-12-17T08:35:52;22.00;;;9.05;;
41739;SDS011;27422;52.444;13.300;2022-12-17T08:38:36;18.83;;;8.18;;
41739;SDS011;27422;52.444;13.300;2022-12-17T08:41:20;23.45;;;9.63;;
41739;SDS011;27422;52.444;13.300;2022-12-17T08:44:04;19.83;;;8.35;;
41739;SDS011;27422;52.444;13.300;2022-12-17T08:46:48;19.73;;;8.35;;
41739;SDS011;27422;52.444;13.300;2022-12-17T08:49:31;22.83;;;9.65;;
41739;SDS011;27422;52.444;13.300;2022-12-17T08:52:15;20.80;;;9.10;;
41739;SDS011;27422;52.444;13.300;2022-12-17T08:54:59;22.88;;;9.43;;
41739;SDS011;27422;52.444;13.300;2022-12-17T08:57:51;21.27;;;9.02;;
41739;SDS011;27422;52.444;13.300;2022-12-17T09:00:37;23.30;;;9.65;;
41739;SDS011;27422;52.444;13.300;2022-12-17T09:03:21;21.80;;;9.45;;
41739;SDS011;27422;52.444;13.300;2022-12-17T09:06:05;20.05;;;9.10;;
41739;SDS011;27422;52.444;13.300;2022-12-17T09:08:49;21.02;;;8.95;;
41739;SDS011;27422;52.444;13.300;2022-12-17T09:11:33;20.10;;;9.65;;
41739;SDS011;27422;52.444;13.300;2022-12-17T09:14:17;19.35;;;8.57;;
41739;SDS011;27422;52.444;13.300;2022-12-17T09:17:00;20.83;;;9.27;;
41739;SDS011;27422;52.444;13.300;2022-12-17T09:19:44;21.13;;;8.52;;
41739;SDS011;27422;52.444;13.300;2022-12-17T09:22:28;21.17;;;9.13;;
41739;SDS011;27422;52.444;13.300;2022-12-17T09:25:15;26.80;;;9.95;;
41739;SDS011;27422;52.444;13.300;2022-12-17T09:27:59;20.30;;;8.40;;
41739;SDS011;27422;52.444;13.300;2022-12-17T09:30:44;24.38;;;9.45;;
41739;SDS011;27422;52.444;13.300;2022-12-17T09:33:28;22.58;;;9.88;;
41739;SDS011;27422;52.444;13.300;2022-12-17T09:36:12;20.35;;;9.43;;
41739;SDS011;27422;52.444;13.300;2022-12-17T09:38:55;24.73;;;10.35;;
41739;SDS011;27422;52.444;13.300;2022-12-17T09:53:22;21.40;;;8.93;;
41739;SDS011;27422;52.444;13.300;2022-12-17T09:56:28;21.92;;;9.75;;
41739;SDS011;27422;52.444;13.300;2022-12-17T09:59:23;25.60;;;10.18;;
41739;SDS011;27422;52.444;13.300;2022-12-17T10:04:58;22.98;;;9.82;;
41739;SDS011;27422;52.444;13.300;2022-12-17T10:07:43;24.80;;;9.63;;
41739;SDS011;27422;52.444;13.300;2022-12-17T10:10:32;25.70;;;10.63;;
41739;SDS011;27422;52.444;13.300;2022-12-17T10:13:20;25.27;;;10.30;;
41739;SDS011;27422;52.444;13.300;2022-12-17T10:19:11;25.50;;;10.25;;
41739;SDS011;27422;52.444;13.300;2022-12-17T10:22:17;24.73;;;10.32;;
41739;SDS011;27422;52.444;13.300;2022-12-17T10:25:03;30.67;;;10.93;;
41739;SDS011;27422;52.444;13.300;2022-12-17T10:28:12;27.60;;;11.98;;
41739;SDS011;27422;52.444;13.300;2022-12-17T10:30:58;25.42;;;10.15;;
41739;SDS011;27422;52.444;13.300;2022-12-17T10:33:43;27.30;;;10.13;;
41739;SDS011;27422;52.444;13.300;2022-12-17T10:36:27;24.92;;;10.15;;
41739;SDS011;27422;52.444;13.300;2022-12-17T10:39:19;25.65;;;11.18;;
41739;SDS011;27422;52.444;13.300;2022-12-17T10:42:21;26.77;;;10.25;;
41739;SDS011;27422;52.444;13.300;2022-12-17T10:45:29;27.58;;;11.05;;
41739;SDS011;27422;52.444;13.300;2022-12-17T10:51:33;31.25;;;11.13;;
41739;SDS011;27422;52.444;13.300;2022-12-17T10:54:25;32.35;;;11.57;;
41739;SDS011;27422;52.444;13.300;2022-12-17T10:57:32;29.83;;;11.68;;
41739;SDS011;27422;52.444;13.300;2022-12-17T11:03:01;33.40;;;12.20;;
41739;SDS011;27422;52.444;13.300;2022-12-17T11:05:46;28.52;;;11.38;;
41739;SDS011;27422;52.444;13.300;2022-12-17T11:08:32;24.88;;;10.77;;
41739;SDS011;27422;52.444;13.300;2022-12-17T11:11:19;35.88;;;12.80;;
41739;SDS011;27422;52.444;13.300;2022-12-17T11:14:09;29.27;;;11.52;;
41739;SDS011;27422;52.444;13.300;2022-12-17T11:16:58;26.05;;;10.82;;
41739;SDS011;27422;52.444;13.300;2022-12-17T11:19:51;27.55;;;10.85;;
41739;SDS011;27422;52.444;13.300;2022-12-17T11:22:47;25.73;;;10.50;;
41739;SDS011;27422;52.444;13.300;2022-12-17T11:28:33;24.98;;;10.88;;
41739;SDS011;27422;52.444;13.300;2022-12-17T11:31:27;29.40;;;12.13;;
41739;SDS011;27422;52.444;13.300;2022-12-17T11:43:01;30.85;;;12.05;;
41739;SDS011;27422;52.444;13.300;2022-12-17T11:48:50;25.20;;;11.10;;
41739;SDS011;27422;52.444;13.300;2022-12-17T11:51:45;28.70;;;11.50;;
41739;SDS011;27422;52.444;13.300;2022-12-17T11:54:43;32.83;;;12.82;;
41739;SDS011;27422;52.444;13.300;2022-12-17T12:00:31;29.17;;;10.80;;
41739;SDS011;27422;52.444;13.300;2022-12-17T12:09:43;28.38;;;11.15;;
41739;SDS011;27422;52.444;13.300;2022-12-17T12:12:42;29.45;;;11.57;;
41739;SDS011;27422;52.444;13.300;2022-12-17T12:21:36;33.45;;;12.52;;
41739;SDS011;27422;52.444;13.300;2022-12-17T12:27:39;28.37;;;11.10;;
41739;SDS011;27422;52.444;13.300;2022-12-17T12:30:44;29.90;;;11.18;;
41739;SDS011;27422;52.444;13.300;2022-12-17T12:33:54;28.38;;;10.93;;
41739;SDS011;27422;52.444;13.300;2022-12-17T12:36:41;35.05;;;11.25;;
41739;SDS011;27422;52.444;13.300;2022-12-17T12:39:50;27.15;;;10.55;;
41739;SDS011;27422;52.444;13.300;2022-12-17T12:42:50;30.38;;;12.55;;
41739;SDS011;27422;52.444;13.300;2022-12-17T12:45:47;35.03;;;11.57;;
41739;SDS011;27422;52.444;13.300;2022-12-17T12:54:23;38.92;;;12.57;;
41739;SDS011;27422;52.444;13.300;2022-12-17T12:57:24;31.48;;;13.07;;
41739;SDS011;27422;52.444;13.300;2022-12-17T13:00:21;33.53;;;11.98;;
41739;SDS011;27422;52.444;13.300;2022-12-17T13:06:09;31.23;;;11.63;;
41739;SDS011;27422;52.444;13.300;2022-12-17T13:08:35;32.55;;;11.30;;
41739;SDS011;27422;52.444;13.300;2022-12-17T13:11:11;32.85;;;13.38;;
41739;SDS011;27422;52.444;13.300;2022-12-17T13:13:51;36.22;;;11.57;;
41739;SDS011;27422;52.444;13.300;2022-12-17T13:16:29;26.25;;;11.48;;
41739;SDS011;27422;52.444;13.300;2022-12-17T13:22:22;24.73;;;8.27;;
41739;SDS011;27422;52.444;13.300;2022-12-17T13:24:52;31.15;;;11.82;;
41739;SDS011;27422;52.444;13.300;2022-12-17T13:29:54;28.45;;;10.82;;
41739;SDS011;27422;52.444;13.300;2022-12-17T13:32:22;26.67;;;11.20;;
41739;SDS011;27422;52.444;13.300;2022-12-17T13:35:00;29.75;;;11.32;;
41739;SDS011;27422;52.444;13.300;2022-12-17T13:37:31;24.77;;;10.00;;
41739;SDS011;27422;52.444;13.300;2022-12-17T13:40:27;28.70;;;10.32;;
41739;SDS011;27422;52.444;13.300;2022-12-17T13:42:58;29.45;;;10.82;;
41739;SDS011;27422;52.444;13.300;2022-12-17T13:45:24;26.30;;;10.60;;
41739;SDS011;27422;52.444;13.300;2022-12-17T13:47:56;29.20;;;11.10;;
41739;SDS011;27422;52.444;13.300;2022-12-17T13:50:27;30.90;;;11.60;;
41739;SDS011;27422;52.444;13.300;2022-12-17T13:52:54;29.33;;;11.98;;
41739;SDS011;27422;52.444;13.300;2022-12-17T13:55:20;32.85;;;12.05;;
41739;SDS011;27422;52.444;13.300;2022-12-17T13:57:48;28.35;;;10.70;;
41739;SDS011;27422;52.444;13.300;2022-12-17T14:00:18;32.17;;;12.32;;
41739;SDS011;27422;52.444;13.300;2022-12-17T14:02:45;30.42;;;11.43;;
41739;SDS011;27422;52.444;13.300;2022-12-17T14:07:57;29.33;;;11.45;;
41739;SDS011;27422;52.444;13.300;2022-12-17T14:10:26;31.00;;;12.30;;
41739;SDS011;27422;52.444;13.300;2022-12-17T14:13:13;26.60;;;10.77;;
41739;SDS011;27422;52.444;13.300;2022-12-17T14:15:49;31.17;;;10.77;;
41739;SDS011;27422;52.444;13.300;2022-12-17T14:18:17;28.42;;;10.23;;
41739;SDS011;27422;52.444;13.300;2022-12-17T14:20:43;34.00;;;12.13;;
41739;SDS011;27422;52.444;13.300;2022-12-17T14:23:14;34.75;;;12.38;;
41739;SDS011;27422;52.444;13.300;2022-12-17T14:25:45;33.92;;;12.32;;
41739;SDS011;27422;52.444;13.300;2022-12-17T14:31:07;36.45;;;13.55;;
41739;SDS011;27422;52.444;13.300;2022-12-17T14:36:31;30.13;;;10.93;;
41739;SDS011;27422;52.444;13.300;2022-12-17T14:38:58;28.33;;;11.10;;
41739;SDS011;27422;52.444;13.300;2022-12-17T14:44:16;27.63;;;11.55;;
41739;SDS011;27422;52.444;13.300;2022-12-17T14:46:46;28.35;;;10.60;;
41739;SDS011;27422;52.444;13.300;2022-12-17T14:49:20;33.60;;;12.32;;
41739;SDS011;27422;52.444;13.300;2022-12-17T14:51:47;25.95;;;9.43;;
41739;SDS011;27422;52.444;13.300;2022-12-17T14:56:39;35.80;;;13.10;;
41739;SDS011;27422;52.444;13.300;2022-12-17T15:04:35;35.53;;;13.15;;
41739;SDS011;27422;52.444;13.300;2022-12-17T15:07:01;35.38;;;13.00;;
41739;SDS011;27422;52.444;13.300;2022-12-17T15:09:27;30.30;;;12.25;;
41739;SDS011;27422;52.444;13.300;2022-12-17T15:11:53;30.73;;;11.75;;
41739;SDS011;27422;52.444;13.300;2022-12-17T15:14:18;32.47;;;11.77;;
41739;SDS011;27422;52.444;13.300;2022-12-17T15:16:44;29.85;;;11.85;;
41739;SDS011;27422;52.444;13.300;2022-12-17T15:19:11;34.92;;;12.02;;
41739;SDS011;27422;52.444;13.300;2022-12-17T15:21:37;31.10;;;12.07;;
41739;SDS011;27422;52.444;13.300;2022-12-17T15:24:02;30.00;;;12.18;;
41739;SDS011;27422;52.444;13.300;2022-12-17T15:26:28;33.42;;;12.75;;
41739;SDS011;27422;52.444;13.300;2022-12-17T15:28:53;31.60;;;12.20;;
41739;SDS011;27422;52.444;13.300;2022-12-17T15:31:19;35.20;;;12.25;;
41739;SDS011;27422;52.444;13.300;2022-12-17T15:33:44;35.15;;;12.75;;
41739;SDS011;27422;52.444;13.300;2022-12-17T15:36:13;33.53;;;12.35;;
41739;SDS011;27422;52.444;13.300;2022-12-17T15:38:38;43.28;;;13.65;;
41739;SDS011;27422;52.444;13.300;2022-12-17T15:41:04;34.00;;;11.43;;
41739;SDS011;27422;52.444;13.300;2022-12-17T15:43:50;38.95;;;13.32;;
41739;SDS011;27422;52.444;13.300;2022-12-17T15:46:15;32.17;;;11.63;;
41739;SDS011;27422;52.444;13.300;2022-12-17T15:48:46;36.70;;;13.93;;
41739;SDS011;27422;52.444;13.300;2022-12-17T15:51:11;32.03;;;12.50;;
41739;SDS011;27422;52.444;13.300;2022-12-17T15:53:37;35.92;;;12.95;;
41739;SDS011;27422;52.444;13.300;2022-12-17T15:56:05;37.63;;;13.13;;
41739;SDS011;27422;52.444;13.300;2022-12-17T15:58:31;35.20;;;12.18;;
41739;SDS011;27422;52.444;13.300;2022-12-17T16:00:56;34.58;;;12.13;;
41739;SDS011;27422;52.444;13.300;2022-12-17T16:03:22;38.63;;;12.20;;
41739;SDS011;27422;52.444;13.300;2022-12-17T16:05:47;34.80;;;13.13;;
41739;SDS011;27422;52.444;13.300;2022-12-17T16:08:13;35.35;;;12.02;;
41739;SDS011;27422;52.444;13.300;2022-12-17T16:10:39;32.27;;;12.00;;
41739;SDS011;27422;52.444;13.300;2022-12-17T16:13:07;32.60;;;12.43;;
41739;SDS011;27422;52.444;13.300;2022-12-17T16:15:32;33.00;;;11.70;;
41739;SDS011;27422;52.444;13.300;2022-12-17T16:17:58;32.97;;;12.23;;
41739;SDS011;27422;52.444;13.300;2022-12-17T16:20:23;34.92;;;11.70;;
41739;SDS011;27422;52.444;13.300;2022-12-17T16:22:51;38.22;;;13.40;;
41739;SDS011;27422;52.444;13.300;2022-12-17T16:25:17;29.00;;;12.75;;
41739;SDS011;27422;52.444;13.300;2022-12-17T16:27:43;35.47;;;12.93;;
41739;SDS011;27422;52.444;13.300;2022-12-17T16:30:08;34.42;;;12.80;;
41739;SDS011;27422;52.444;13.300;2022-12-17T16:32:35;36.70;;;13.65;;
41739;SDS011;27422;52.444;13.300;2022-12-17T16:35:01;34.55;;;13.35;;
41739;SDS011;27422;52.444;13.300;2022-12-17T16:37:26;40.45;;;14.07;;
41739;SDS011;27422;52.444;13.300;2022-12-17T16:39:52;32.88;;;12.85;;
41739;SDS011;27422;52.444;13.300;2022-12-17T16:42:17;35.97;;;13.82;;
41739;SDS011;27422;52.444;13.300;2022-12-17T16:44:42;34.38;;;13.13;;
41739;SDS011;27422;52.444;13.300;2022-12-17T16:47:08;31.90;;;12.43;;
41739;SDS011;27422;52.444;13.300;2022-12-17T16:49:34;29.58;;;11.63;;
41739;SDS011;27422;52.444;13.300;2022-12-17T16:51:59;35.85;;;11.75;;
41739;SDS011;27422;52.444;13.300;2022-12-17T16:54:28;28.92;;;11.13;;
41739;SDS011;27422;52.444;13.300;2022-12-17T16:56:57;34.80;;;11.93;;
41739;SDS011;27422;52.444;13.300;2022-12-17T16:59:22;34.45;;;11.80;;
41739;SDS011;27422;52.444;13.300;2022-12-17T17:01:48;31.33;;;11.13;;
41739;SDS011;27422;52.444;13.300;2022-12-17T17:04:15;28.40;;;11.77;;
41739;SDS011;27422;52.444;13.300;2022-12-17T17:06:41;40.05;;;12.15;;
41739;SDS011;27422;52.444;13.300;2022-12-17T17:09:09;35.88;;;11.60;;
41739;SDS011;27422;52.444;13.300;2022-12-17T17:11:35;36.13;;;12.55;;